sensor_id;sensor_type;location;lat;lon;timestamp;pressure;altitude;pressure_sealevel;temperature;humidity
41898;BME280;27576;53.366;-1.498;2024-02-14T00:01:48;99291.88;;;6.68;100.00
41898;BME280;27576;53.366;-1.498;2024-02-14T00:04:14;99278.88;;;6.59;100.00
41898;BME280;27576;53.366;-1.498;2024-02-14T00:06:39;99233.13;;;6.32;100.00
41898;BME280;27576;53.366;-1.498;2024-02-14T00:09:05;99278.88;;;6.59;100.00
41898;BME280;27576;53.366;-1.498;2024-02-14T00:11:32;99300.47;;;6.72;100.00
41898;BME280;27576;53.366;-1.498;2024-02-14T00:13:57;99302.16;;;6.71;100.00
41898;BME280;27576;53.366;-1.498;2024-02-14T00:16:24;99253.88;;;6.46;100.00
41898;BME280;27576;53.366;-1.498;2024-02-14T00:18:49;99289.22;;;6.60;100.00
41898;BME280;27576;53.366;-1.498;2024-02-14T00:21:16;99233.16;;;6.35;100.00
41898;BME280;27576;53.366;-1.498;2024-02-14T00:23:42;99243.50;;;6.38;100.00
41898;BME280;27576;53.366;-1.498;2024-02-14T00:26:08;99245.25;;;6.44;100.00
41898;BME280;27576;53.366;-1.498;2024-02-14T00:28:34;99284.09;;;6.65;100.00
41898;BME280;27576;53.366;-1.498;2024-02-14T00:30:59;99278.09;;;6.66;100.00
41898;BME280;27576;53.366;-1.498;2024-02-14T00:33:24;99281.63;;;6.76;100.00
41898;BME280;27576;53.366;-1.498;2024-02-14T00:35:50;99266.94;;;6.66;100.00
41898;BME280;27576;53.366;-1.498;2024-02-14T00:38:15;99254.84;;;6.60;100.00
41898;BME280;27576;53.366;-1.498;2024-02-14T00:40:41;99251.38;;;6.55;100.00
41898;BME280;27576;53.366;-1.498;2024-02-14T00:43:06;99281.63;;;6.76;100.00
41898;BME280;27576;53.366;-1.498;2024-02-14T00:45:31;99296.28;;;6.83;100.00
41898;BME280;27576;53.366;-1.498;2024-02-14T00:47:57;99296.31;;;6.84;100.00
41898;BME280;27576;53.366;-1.498;2024-02-14T00:50:22;99298.03;;;6.85;100.00
41898;BME280;27576;53.366;-1.498;2024-02-14T00:52:48;99270.41;;;6.69;100.00
41898;BME280;27576;53.366;-1.498;2024-02-14T00:55:13;99282.50;;;6.79;100.00
41898;BME280;27576;53.366;-1.498;2024-02-14T00:57:39;99245.47;;;6.62;100.00
41898;BME280;27576;53.366;-1.498;2024-02-14T01:00:05;99286.03;;;6.84;100.00
41898;BME280;27576;53.366;-1.498;2024-02-14T01:02:31;99318.75;;;6.96;100.00
41898;BME280;27576;53.366;-1.498;2024-02-14T01:04:57;99274.75;;;6.73;100.00
41898;BME280;27576;53.366;-1.498;2024-02-14T01:07:22;99248.06;;;6.65;100.00
41898;BME280;27576;53.366;-1.498;2024-02-14T01:09:48;99306.69;;;6.95;100.00
41898;BME280;27576;53.366;-1.498;2024-02-14T01:12:14;99260.13;;;6.69;100.00
41898;BME280;27576;53.366;-1.498;2024-02-14T01:14:42;99291.25;;;6.95;100.00
41898;BME280;27576;53.366;-1.498;2024-02-14T01:17:08;99313.72;;;7.10;100.00
41898;BME280;27576;53.366;-1.498;2024-02-14T01:19:34;99305.94;;;7.07;100.00
41898;BME280;27576;53.366;-1.498;2024-02-14T01:21:59;99225.72;;;6.62;100.00
41898;BME280;27576;53.366;-1.498;2024-02-14T01:24:24;99301.66;;;7.06;100.00
41898;BME280;27576;53.366;-1.498;2024-02-14T01:26:54;99287.03;;;7.03;100.00
41898;BME280;27576;53.366;-1.498;2024-02-14T01:29:23;99292.25;;;7.08;100.00
41898;BME280;27576;53.366;-1.498;2024-02-14T01:31:49;99309.50;;;7.18;100.00
41898;BME280;27576;53.366;-1.498;2024-02-14T01:34:15;99306.09;;;7.21;100.00
41898;BME280;27576;53.366;-1.498;2024-02-14T01:36:40;99217.19;;;6.65;100.00
41898;BME280;27576;53.366;-1.498;2024-02-14T01:39:06;99305.16;;;7.14;100.00
41898;BME280;27576;53.366;-1.498;2024-02-14T01:41:35;99308.66;;;7.22;100.00
41898;BME280;27576;53.366;-1.498;2024-02-14T01:44:01;99273.31;;;7.04;100.00
41898;BME280;27576;53.366;-1.498;2024-02-14T01:46:26;99302.69;;;7.23;100.00
41898;BME280;27576;53.366;-1.498;2024-02-14T01:48:52;99302.66;;;7.20;100.00
41898;BME280;27576;53.366;-1.498;2024-02-14T01:51:19;99281.06;;;7.06;100.00
41898;BME280;27576;53.366;-1.498;2024-02-14T01:53:46;99318.97;;;7.22;100.00
41898;BME280;27576;53.366;-1.498;2024-02-14T01:56:12;99327.63;;;7.27;100.00
41898;BME280;27576;53.366;-1.498;2024-02-14T01:58:37;99324.19;;;7.28;100.00
41898;BME280;27576;53.366;-1.498;2024-02-14T02:01:04;99284.53;;;7.11;100.00
41898;BME280;27576;53.366;-1.498;2024-02-14T02:03:29;99318.16;;;7.26;100.00
41898;BME280;27576;53.366;-1.498;2024-02-14T02:06:01;99322.47;;;7.27;100.00
41898;BME280;27576;53.366;-1.498;2024-02-14T02:08:26;99310.34;;;7.17;100.00
41898;BME280;27576;53.366;-1.498;2024-02-14T02:10:51;99323.31;;;7.25;100.00
41898;BME280;27576;53.366;-1.498;2024-02-14T02:13:17;99314.69;;;7.23;100.00
41898;BME280;27576;53.366;-1.498;2024-02-14T02:15:42;99311.25;;;7.21;100.00
41898;BME280;27576;53.366;-1.498;2024-02-14T02:18:10;99294.81;;;7.11;100.00
41898;BME280;27576;53.366;-1.498;2024-02-14T02:20:36;99301.75;;;7.17;100.00
41898;BME280;27576;53.366;-1.498;2024-02-14T02:23:02;99281.88;;;7.03;100.00
41898;BME280;27576;53.366;-1.498;2024-02-14T02:25:27;99275.88;;;7.00;100.00
41898;BME280;27576;53.366;-1.498;2024-02-14T02:27:53;99276.69;;;6.97;100.00
41898;BME280;27576;53.366;-1.498;2024-02-14T02:30:25;99309.53;;;7.20;100.00
41898;BME280;27576;53.366;-1.498;2024-02-14T02:32:51;99306.94;;;7.21;100.00
41898;BME280;27576;53.366;-1.498;2024-02-14T02:35:17;99215.44;;;6.64;100.00
41898;BME280;27576;53.366;-1.498;2024-02-14T02:37:45;99287.09;;;7.09;100.00
41898;BME280;27576;53.366;-1.498;2024-02-14T02:40:11;99177.50;;;6.43;100.00
41898;BME280;27576;53.366;-1.498;2024-02-14T02:42:38;99273.28;;;7.03;100.00
41898;BME280;27576;53.366;-1.498;2024-02-14T02:45:03;99294.84;;;7.12;100.00
41898;BME280;27576;53.366;-1.498;2024-02-14T02:47:33;99244.75;;;6.78;100.00
41898;BME280;27576;53.366;-1.498;2024-02-14T02:49:59;99302.72;;;7.31;100.00
41898;BME280;27576;53.366;-1.498;2024-02-14T02:52:26;99275.09;;;7.11;100.00
41898;BME280;27576;53.366;-1.498;2024-02-14T02:54:53;99297.56;;;7.31;100.00
41898;BME280;27576;53.366;-1.498;2024-02-14T02:57:19;99220.78;;;6.84;100.00
41898;BME280;27576;53.366;-1.498;2024-02-14T02:59:45;99281.19;;;7.23;100.00
41898;BME280;27576;53.366;-1.498;2024-02-14T03:02:13;99298.47;;;7.31;100.00
41898;BME280;27576;53.366;-1.498;2024-02-14T03:04:39;99231.03;;;6.79;100.00
41898;BME280;27576;53.366;-1.498;2024-02-14T03:07:05;99278.56;;;7.18;100.00
41898;BME280;27576;53.366;-1.498;2024-02-14T03:09:34;99302.72;;;7.29;100.00
41898;BME280;27576;53.366;-1.498;2024-02-14T03:12:00;99296.72;;;7.30;100.00
41898;BME280;27576;53.366;-1.498;2024-02-14T03:14:31;99289.84;;;7.29;100.00
41898;BME280;27576;53.366;-1.498;2024-02-14T03:17:03;99280.28;;;7.16;100.00
41898;BME280;27576;53.366;-1.498;2024-02-14T03:19:28;99279.53;;;7.28;100.00
41898;BME280;27576;53.366;-1.498;2024-02-14T03:21:57;99264.81;;;7.13;100.00
41898;BME280;27576;53.366;-1.498;2024-02-14T03:24:23;99269.13;;;7.17;100.00
41898;BME280;27576;53.366;-1.498;2024-02-14T03:26:51;99248.41;;;7.02;100.00
41898;BME280;27576;53.366;-1.498;2024-02-14T03:29:19;99244.06;;;6.96;100.00
41898;BME280;27576;53.366;-1.498;2024-02-14T03:31:45;99294.13;;;7.30;100.00
41898;BME280;27576;53.366;-1.498;2024-02-14T03:34:10;99270.06;;;7.25;100.00
41898;BME280;27576;53.366;-1.498;2024-02-14T03:36:38;99277.84;;;7.33;100.00
41898;BME280;27576;53.366;-1.498;2024-02-14T03:39:05;99283.84;;;7.32;100.00
41898;BME280;27576;53.366;-1.498;2024-02-14T03:41:32;99230.41;;;7.05;100.00
41898;BME280;27576;53.366;-1.498;2024-02-14T03:43:57;99253.66;;;7.17;100.00
41898;BME280;27576;53.366;-1.498;2024-02-14T03:46:28;99269.22;;;7.28;100.00
41898;BME280;27576;53.366;-1.498;2024-02-14T03:48:54;99246.75;;;7.08;100.00
41898;BME280;27576;53.366;-1.498;2024-02-14T03:51:23;99289.94;;;7.42;100.00
41898;BME280;27576;53.366;-1.498;2024-02-14T03:53:49;99271.88;;;7.37;100.00
41898;BME280;27576;53.366;-1.498;2024-02-14T03:56:15;99253.81;;;7.35;100.00
41898;BME280;27576;53.366;-1.498;2024-02-14T03:58:41;99136.50;;;6.63;100.00
41898;BME280;27576;53.366;-1.498;2024-02-14T04:01:07;99245.22;;;7.36;100.00
41898;BME280;27576;53.366;-1.498;2024-02-14T04:03:32;99253.81;;;7.38;100.00
41898;BME280;27576;53.366;-1.498;2024-02-14T04:05:58;99277.16;;;7.57;100.00
41898;BME280;27576;53.366;-1.498;2024-02-14T04:08:24;99234.94;;;7.36;100.00
41898;BME280;27576;53.366;-1.498;2024-02-14T04:10:51;99115.94;;;6.68;100.00
41898;BME280;27576;53.366;-1.498;2024-02-14T04:13:19;99277.25;;;7.72;100.00
41898;BME280;27576;53.366;-1.498;2024-02-14T04:15:44;99172.94;;;7.18;100.00
41898;BME280;27576;53.366;-1.498;2024-02-14T04:18:11;99075.56;;;6.60;100.00
41898;BME280;27576;53.366;-1.498;2024-02-14T04:20:37;99261.75;;;7.69;100.00
41898;BME280;27576;53.366;-1.498;2024-02-14T04:23:02;99256.66;;;7.77;100.00
41898;BME280;27576;53.366;-1.498;2024-02-14T04:25:31;99262.66;;;7.71;100.00
41898;BME280;27576;53.366;-1.498;2024-02-14T04:27:56;99233.38;;;7.66;100.00
41898;BME280;27576;53.366;-1.498;2024-02-14T04:30:21;99196.25;;;7.38;100.00
41898;BME280;27576;53.366;-1.498;2024-02-14T04:32:47;99225.59;;;7.57;100.00
41898;BME280;27576;53.366;-1.498;2024-02-14T04:35:14;99278.25;;;7.96;100.00
41898;BME280;27576;53.366;-1.498;2024-02-14T04:37:40;99261.91;;;7.97;100.00
41898;BME280;27576;53.366;-1.498;2024-02-14T04:40:08;99245.56;;;7.92;100.00
41898;BME280;27576;53.366;-1.498;2024-02-14T04:42:38;99223.16;;;7.80;100.00
41898;BME280;27576;53.366;-1.498;2024-02-14T04:45:04;99255.06;;;7.99;100.00
41898;BME280;27576;53.366;-1.498;2024-02-14T04:47:29;99235.25;;;7.92;100.00
41898;BME280;27576;53.366;-1.498;2024-02-14T04:49:55;99256.78;;;8.03;100.00
41898;BME280;27576;53.366;-1.498;2024-02-14T04:52:20;99263.69;;;8.08;100.00
41898;BME280;27576;53.366;-1.498;2024-02-14T04:54:46;99231.84;;;8.02;100.00
41898;BME280;27576;53.366;-1.498;2024-02-14T04:57:11;99255.06;;;8.09;100.00
41898;BME280;27576;53.366;-1.498;2024-02-14T04:59:37;99257.72;;;8.20;100.00
41898;BME280;27576;53.366;-1.498;2024-02-14T05:02:03;99262.00;;;8.20;100.00
41898;BME280;27576;53.366;-1.498;2024-02-14T05:04:31;99180.16;;;7.79;100.00
41898;BME280;27576;53.366;-1.498;2024-02-14T05:06:57;99264.66;;;8.30;100.00
41898;BME280;27576;53.366;-1.498;2024-02-14T05:09:22;99268.09;;;8.34;100.00
41898;BME280;27576;53.366;-1.498;2024-02-14T05:11:47;99243.13;;;8.27;100.00
41898;BME280;27576;53.366;-1.498;2024-02-14T05:14:14;99256.09;;;8.38;100.00
41898;BME280;27576;53.366;-1.498;2024-02-14T05:16:39;99189.72;;;7.98;100.00
41898;BME280;27576;53.366;-1.498;2024-02-14T05:19:04;99248.28;;;8.33;100.00
41898;BME280;27576;53.366;-1.498;2024-02-14T05:21:30;99257.84;;;8.42;100.00
41898;BME280;27576;53.366;-1.498;2024-02-14T05:23:55;99205.22;;;8.06;100.00
41898;BME280;27576;53.366;-1.498;2024-02-14T05:26:20;99263.78;;;8.36;100.00
41898;BME280;27576;53.366;-1.498;2024-02-14T05:28:46;99284.53;;;8.47;100.00
41898;BME280;27576;53.366;-1.498;2024-02-14T05:31:11;99255.19;;;8.35;100.00
41898;BME280;27576;53.366;-1.498;2024-02-14T05:33:37;99282.81;;;8.50;100.00
41898;BME280;27576;53.366;-1.498;2024-02-14T05:36:02;99283.66;;;8.51;100.00
41898;BME280;27576;53.366;-1.498;2024-02-14T05:38:28;99277.63;;;8.43;100.00
41898;BME280;27576;53.366;-1.498;2024-02-14T05:40:55;99276.78;;;8.50;100.00
41898;BME280;27576;53.366;-1.498;2024-02-14T05:43:21;99202.59;;;7.98;100.00
41898;BME280;27576;53.366;-1.498;2024-02-14T05:45:47;99286.22;;;8.48;100.00
41898;BME280;27576;53.366;-1.498;2024-02-14T05:48:12;99240.50;;;8.21;100.00
41898;BME280;27576;53.366;-1.498;2024-02-14T05:50:38;99266.38;;;8.36;100.00
41898;BME280;27576;53.366;-1.498;2024-02-14T05:53:04;99255.13;;;8.20;100.00
41898;BME280;27576;53.366;-1.498;2024-02-14T05:55:29;99276.75;;;8.38;100.00
41898;BME280;27576;53.366;-1.498;2024-02-14T05:57:54;99281.91;;;8.41;100.00
41898;BME280;27576;53.366;-1.498;2024-02-14T06:00:20;99281.03;;;8.40;100.00
41898;BME280;27576;53.366;-1.498;2024-02-14T06:02:49;99272.38;;;8.36;100.00
41898;BME280;27576;53.366;-1.498;2024-02-14T06:05:17;99271.53;;;8.31;100.00
41898;BME280;27576;53.366;-1.498;2024-02-14T06:07:43;99249.09;;;8.21;100.00
41898;BME280;27576;53.366;-1.498;2024-02-14T06:10:12;99260.34;;;8.32;100.00
41898;BME280;27576;53.366;-1.498;2024-02-14T06:12:37;99240.53;;;8.18;100.00
41898;BME280;27576;53.366;-1.498;2024-02-14T06:15:05;99254.31;;;8.30;100.00
41898;BME280;27576;53.366;-1.498;2024-02-14T06:17:31;99250.84;;;8.28;100.00
41898;BME280;27576;53.366;-1.498;2024-02-14T06:19:56;99281.06;;;8.43;100.00
41898;BME280;27576;53.366;-1.498;2024-02-14T06:22:25;99281.94;;;8.51;100.00
41898;BME280;27576;53.366;-1.498;2024-02-14T06:24:51;99275.06;;;8.46;100.00
41898;BME280;27576;53.366;-1.498;2024-02-14T06:27:16;99285.41;;;8.58;100.00
41898;BME280;27576;53.366;-1.498;2024-02-14T06:29:43;99252.66;;;8.39;100.00
41898;BME280;27576;53.366;-1.498;2024-02-14T06:32:08;99284.56;;;8.62;100.00
41898;BME280;27576;53.366;-1.498;2024-02-14T06:34:34;99256.09;;;8.48;100.00
41898;BME280;27576;53.366;-1.498;2024-02-14T06:36:59;99176.75;;;7.94;100.00
41898;BME280;27576;53.366;-1.498;2024-02-14T06:39:24;99203.47;;;8.09;100.00
41898;BME280;27576;53.366;-1.498;2024-02-14T06:41:50;99307.81;;;8.62;100.00
41898;BME280;27576;53.366;-1.498;2024-02-14T06:44:15;99256.91;;;8.35;100.00
41898;BME280;27576;53.366;-1.498;2024-02-14T06:46:41;99310.38;;;8.62;100.00
41898;BME280;27576;53.366;-1.498;2024-02-14T06:49:07;99296.63;;;8.57;100.00
41898;BME280;27576;53.366;-1.498;2024-02-14T06:51:32;99271.59;;;8.38;100.00
41898;BME280;27576;53.366;-1.498;2024-02-14T06:53:58;99310.38;;;8.62;100.00
41898;BME280;27576;53.366;-1.498;2024-02-14T06:56:24;99298.31;;;8.59;100.00
41898;BME280;27576;53.366;-1.498;2024-02-14T06:58:49;99306.94;;;8.58;100.00
41898;BME280;27576;53.366;-1.498;2024-02-14T07:01:24;99307.78;;;8.59;100.00
41898;BME280;27576;53.366;-1.498;2024-02-14T07:03:50;99256.03;;;8.25;100.00
41898;BME280;27576;53.366;-1.498;2024-02-14T07:06:16;99326.78;;;8.70;100.00
41898;BME280;27576;53.366;-1.498;2024-02-14T07:08:43;99319.03;;;8.70;100.00
41898;BME280;27576;53.366;-1.498;2024-02-14T07:11:08;99284.56;;;8.53;100.00
41898;BME280;27576;53.366;-1.498;2024-02-14T07:13:34;99318.16;;;8.70;100.00
41898;BME280;27576;53.366;-1.498;2024-02-14T07:15:59;99328.50;;;8.77;100.00
41898;BME280;27576;53.366;-1.498;2024-02-14T07:18:25;99276.75;;;8.44;100.00
41898;BME280;27576;53.366;-1.498;2024-02-14T07:20:50;99269.88;;;8.43;100.00
41898;BME280;27576;53.366;-1.498;2024-02-14T07:23:16;99287.13;;;8.50;100.00
41898;BME280;27576;53.366;-1.498;2024-02-14T07:25:42;99251.72;;;8.23;100.00
41898;BME280;27576;53.366;-1.498;2024-02-14T07:28:08;99327.59;;;8.68;100.00
41898;BME280;27576;53.366;-1.498;2024-02-14T07:30:33;99322.44;;;8.68;100.00
41898;BME280;27576;53.366;-1.498;2024-02-14T07:32:59;99338.84;;;8.77;100.00
41898;BME280;27576;53.366;-1.498;2024-02-14T07:35:24;99251.72;;;8.27;100.00
41898;BME280;27576;53.366;-1.498;2024-02-14T07:37:50;99340.53;;;8.75;100.00
41898;BME280;27576;53.366;-1.498;2024-02-14T07:40:16;99336.25;;;8.73;100.00
41898;BME280;27576;53.366;-1.498;2024-02-14T07:42:41;99343.97;;;8.71;100.00
41898;BME280;27576;53.366;-1.498;2024-02-14T07:45:07;99311.25;;;8.64;100.00
41898;BME280;27576;53.366;-1.498;2024-02-14T07:47:32;99326.78;;;8.70;100.00
41898;BME280;27576;53.366;-1.498;2024-02-14T07:49:58;99287.94;;;8.43;100.00
41898;BME280;27576;53.366;-1.498;2024-02-14T07:52:24;99338.88;;;8.80;100.00
41898;BME280;27576;53.366;-1.498;2024-02-14T07:54:53;99314.69;;;8.63;100.00
41898;BME280;27576;53.366;-1.498;2024-02-14T07:57:19;99280.19;;;8.40;100.00
41898;BME280;27576;53.366;-1.498;2024-02-14T07:59:45;99339.69;;;8.79;100.00
41898;BME280;27576;53.366;-1.498;2024-02-14T08:02:10;99300.03;;;8.60;100.00
41898;BME280;27576;53.366;-1.498;2024-02-14T08:04:35;99290.56;;;8.55;100.00
41898;BME280;27576;53.366;-1.498;2024-02-14T08:07:01;99326.78;;;8.79;100.00
41898;BME280;27576;53.366;-1.498;2024-02-14T08:09:26;99332.81;;;8.80;100.00
41898;BME280;27576;53.366;-1.498;2024-02-14T08:11:52;99334.53;;;8.79;100.00
41898;BME280;27576;53.366;-1.498;2024-02-14T08:14:18;99332.81;;;8.78;100.00
41898;BME280;27576;53.366;-1.498;2024-02-14T08:16:44;99325.91;;;8.79;100.00
41898;BME280;27576;53.366;-1.498;2024-02-14T08:19:09;99329.34;;;8.75;100.00
41898;BME280;27576;53.366;-1.498;2024-02-14T08:21:34;99350.06;;;8.89;100.00
41898;BME280;27576;53.366;-1.498;2024-02-14T08:24:01;99352.66;;;8.90;100.00
41898;BME280;27576;53.366;-1.498;2024-02-14T08:26:26;99331.09;;;8.82;100.00
41898;BME280;27576;53.366;-1.498;2024-02-14T08:28:52;99288.81;;;8.48;100.00
41898;BME280;27576;53.366;-1.498;2024-02-14T08:31:17;99321.59;;;8.72;100.00
41898;BME280;27576;53.366;-1.498;2024-02-14T08:33:43;99304.34;;;8.63;100.00
41898;BME280;27576;53.366;-1.498;2024-02-14T08:36:09;99344.03;;;8.88;100.00
41898;BME280;27576;53.366;-1.498;2024-02-14T08:38:34;99344.91;;;8.85;100.00
41898;BME280;27576;53.366;-1.498;2024-02-14T08:41:01;99345.75;;;8.91;100.00
41898;BME280;27576;53.366;-1.498;2024-02-14T08:43:26;99337.13;;;8.81;100.00
41898;BME280;27576;53.366;-1.498;2024-02-14T08:45:54;99333.69;;;8.83;100.00
41898;BME280;27576;53.366;-1.498;2024-02-14T08:48:19;99345.75;;;8.91;100.00
41898;BME280;27576;53.366;-1.498;2024-02-14T08:50:45;99291.44;;;8.57;100.00
41898;BME280;27576;53.366;-1.498;2024-02-14T08:53:12;99359.56;;;9.02;100.00
41898;BME280;27576;53.366;-1.498;2024-02-14T08:55:39;99357.88;;;9.04;100.00
41898;BME280;27576;53.366;-1.498;2024-02-14T08:58:05;99359.59;;;9.05;100.00
41898;BME280;27576;53.366;-1.498;2024-02-14T09:00:30;99355.25;;;8.96;100.00
41898;BME280;27576;53.366;-1.498;2024-02-14T09:03:03;99314.69;;;8.66;100.00
41898;BME280;27576;53.366;-1.498;2024-02-14T09:05:29;99373.38;;;9.05;100.00
41898;BME280;27576;53.366;-1.498;2024-02-14T09:07:54;99369.91;;;9.09;100.00
41898;BME280;27576;53.366;-1.498;2024-02-14T09:10:20;99352.69;;;9.01;100.00
41898;BME280;27576;53.366;-1.498;2024-02-14T09:12:45;99356.16;;;9.12;100.00
41898;BME280;27576;53.366;-1.498;2024-02-14T09:15:11;99355.31;;;9.16;100.00
41898;BME280;27576;53.366;-1.498;2024-02-14T09:17:37;99335.44;;;9.00;100.00
41898;BME280;27576;53.366;-1.498;2024-02-14T09:20:04;99332.88;;;9.09;100.00
41898;BME280;27576;53.366;-1.498;2024-02-14T09:22:31;99350.97;;;9.18;100.00
41898;BME280;27576;53.366;-1.498;2024-02-14T09:24:59;99288.91;;;8.83;100.00
41898;BME280;27576;53.366;-1.498;2024-02-14T09:27:24;99288.94;;;8.94;100.00
41898;BME280;27576;53.366;-1.498;2024-02-14T09:29:49;99363.06;;;9.38;100.00
41898;BME280;27576;53.366;-1.498;2024-02-14T09:32:15;99344.94;;;9.27;100.00
41898;BME280;27576;53.366;-1.498;2024-02-14T09:34:40;99373.41;;;9.45;100.00
41898;BME280;27576;53.366;-1.498;2024-02-14T09:37:06;99338.94;;;9.22;100.00
41898;BME280;27576;53.366;-1.498;2024-02-14T09:39:32;99378.59;;;9.53;100.00
41898;BME280;27576;53.366;-1.498;2024-02-14T09:41:59;99357.91;;;9.50;100.00
41898;BME280;27576;53.366;-1.498;2024-02-14T09:44:27;99322.56;;;9.37;100.00
41898;BME280;27576;53.366;-1.498;2024-02-14T09:46:54;99353.59;;;9.61;100.00
41898;BME280;27576;53.366;-1.498;2024-02-14T09:49:21;99330.31;;;9.58;100.00
41898;BME280;27576;53.366;-1.498;2024-02-14T09:51:48;99357.03;;;9.78;100.00
41898;BME280;27576;53.366;-1.498;2024-02-14T09:54:16;99345.81;;;9.73;100.00
41898;BME280;27576;53.366;-1.498;2024-02-14T09:56:47;99353.59;;;9.75;100.00
41898;BME280;27576;53.366;-1.498;2024-02-14T09:59:15;99301.00;;;9.50;100.00
41898;BME280;27576;53.366;-1.498;2024-02-14T10:01:41;99338.94;;;9.75;100.00
41898;BME280;27576;53.366;-1.498;2024-02-14T10:04:08;99375.13;;;9.97;100.00
41898;BME280;27576;53.366;-1.498;2024-02-14T10:06:33;99363.06;;;9.93;100.00
41898;BME280;27576;53.366;-1.498;2024-02-14T10:08:59;99332.88;;;9.78;100.00
41898;BME280;27576;53.366;-1.498;2024-02-14T10:11:24;99363.91;;;10.04;100.00
41898;BME280;27576;53.366;-1.498;2024-02-14T10:13:52;99348.38;;;10.01;100.00
41898;BME280;27576;53.366;-1.498;2024-02-14T10:16:19;99374.22;;;10.22;100.00
41898;BME280;27576;53.366;-1.498;2024-02-14T10:18:45;99362.19;;;10.26;100.00
41898;BME280;27576;53.366;-1.498;2024-02-14T10:21:18;99364.75;;;10.30;100.00
41898;BME280;27576;53.366;-1.498;2024-02-14T10:23:44;99355.25;;;10.25;100.00
41898;BME280;27576;53.366;-1.498;2024-02-14T10:26:12;99349.22;;;10.27;100.00
41898;BME280;27576;53.366;-1.498;2024-02-14T10:28:41;99365.56;;;10.40;100.00
41898;BME280;27576;53.366;-1.498;2024-02-14T10:31:07;99344.03;;;10.30;100.00
41898;BME280;27576;53.366;-1.498;2024-02-14T10:33:35;99344.88;;;10.29;100.00
41898;BME280;27576;53.366;-1.498;2024-02-14T10:36:01;99349.22;;;10.34;100.00
41898;BME280;27576;53.366;-1.498;2024-02-14T10:38:31;99332.78;;;10.24;100.00
41898;BME280;27576;53.366;-1.498;2024-02-14T10:40:59;99368.16;;;10.39;100.00
41898;BME280;27576;53.366;-1.498;2024-02-14T10:43:25;99393.19;;;10.46;100.00
41898;BME280;27576;53.366;-1.498;2024-02-14T10:45:52;99379.41;;;10.35;100.00
41898;BME280;27576;53.366;-1.498;2024-02-14T10:48:22;99381.97;;;10.41;100.00
41898;BME280;27576;53.366;-1.498;2024-02-14T10:50:53;99382.88;;;10.34;100.00
41898;BME280;27576;53.366;-1.498;2024-02-14T10:53:19;99378.53;;;10.32;100.00
41898;BME280;27576;53.366;-1.498;2024-02-14T10:55:48;99391.47;;;10.40;100.00
41898;BME280;27576;53.366;-1.498;2024-02-14T10:58:16;99388.00;;;10.40;100.00
41898;BME280;27576;53.366;-1.498;2024-02-14T11:00:47;99350.06;;;10.17;100.00
41898;BME280;27576;53.366;-1.498;2024-02-14T11:03:13;99370.75;;;10.37;100.00
41898;BME280;27576;53.366;-1.498;2024-02-14T11:05:48;99360.38;;;10.46;100.00
41898;BME280;27576;53.366;-1.498;2024-02-14T11:08:21;99378.47;;;10.62;100.00
41898;BME280;27576;53.366;-1.498;2024-02-14T11:10:55;99375.78;;;10.72;100.00
41898;BME280;27576;53.366;-1.498;2024-02-14T11:13:21;99357.72;;;10.63;100.00
41898;BME280;27576;53.366;-1.498;2024-02-14T11:15:47;99383.56;;;10.81;100.00
41898;BME280;27576;53.366;-1.498;2024-02-14T11:18:12;99370.59;;;10.75;100.00
41898;BME280;27576;53.366;-1.498;2024-02-14T11:20:38;99351.63;;;10.70;100.00
41898;BME280;27576;53.366;-1.498;2024-02-14T11:23:06;99373.19;;;10.81;100.00
41898;BME280;27576;53.366;-1.498;2024-02-14T11:25:36;99383.50;;;10.88;100.00
41898;BME280;27576;53.366;-1.498;2024-02-14T11:28:18;99355.06;;;10.78;100.00
41898;BME280;27576;53.366;-1.498;2024-02-14T11:30:48;99381.72;;;10.96;100.00
41898;BME280;27576;53.366;-1.498;2024-02-14T11:33:17;99380.00;;;11.01;100.00
41898;BME280;27576;53.366;-1.498;2024-02-14T11:35:44;99373.97;;;10.97;100.00
41898;BME280;27576;53.366;-1.498;2024-02-14T11:38:10;99369.59;;;11.04;100.00
41898;BME280;27576;53.366;-1.498;2024-02-14T11:40:36;99360.03;;;11.14;100.00
41898;BME280;27576;53.366;-1.498;2024-02-14T11:43:05;99327.31;;;10.96;100.00
41898;BME280;27576;53.366;-1.498;2024-02-14T11:45:35;99353.97;;;11.15;100.00
41898;BME280;27576;53.366;-1.498;2024-02-14T11:48:01;99360.03;;;11.14;100.00
41898;BME280;27576;53.366;-1.498;2024-02-14T11:50:26;99351.44;;;11.04;100.00
41898;BME280;27576;53.366;-1.498;2024-02-14T11:52:52;99366.06;;;11.17;100.00
41898;BME280;27576;53.366;-1.498;2024-02-14T11:55:18;99324.72;;;10.96;100.00
41898;BME280;27576;53.366;-1.498;2024-02-14T11:57:43;99341.03;;;11.13;100.00
41898;BME280;27576;53.366;-1.498;2024-02-14T12:00:09;99360.81;;;11.28;100.00
41898;BME280;27576;53.366;-1.498;2024-02-14T12:02:35;99371.09;;;11.39;100.00
41898;BME280;27576;53.366;-1.498;2024-02-14T12:05:01;99286.72;;;10.95;100.00
41898;BME280;27576;53.366;-1.498;2024-02-14T12:07:30;99334.06;;;11.24;100.00
41898;BME280;27576;53.366;-1.498;2024-02-14T12:09:56;99347.72;;;11.45;100.00
41898;BME280;27576;53.366;-1.498;2024-02-14T12:12:21;99352.81;;;11.54;100.00
41898;BME280;27576;53.366;-1.498;2024-02-14T12:14:51;99326.94;;;11.49;100.00
41898;BME280;27576;53.366;-1.498;2024-02-14T12:17:17;99317.31;;;11.59;100.00
41898;BME280;27576;53.366;-1.498;2024-02-14T12:19:46;99337.88;;;11.88;100.00
41898;BME280;27576;53.366;-1.498;2024-02-14T12:22:13;99358.19;;;12.29;100.00
41898;BME280;27576;53.366;-1.498;2024-02-14T12:24:44;99302.25;;;12.01;100.00
41898;BME280;27576;53.366;-1.498;2024-02-14T12:27:09;99364.22;;;12.33;100.00
41898;BME280;27576;53.366;-1.498;2024-02-14T12:29:35;99339.41;;;12.06;100.00
41898;BME280;27576;53.366;-1.498;2024-02-14T12:32:05;99362.63;;;12.23;100.00
41898;BME280;27576;53.366;-1.498;2024-02-14T12:34:32;99382.59;;;12.16;100.00
41898;BME280;27576;53.366;-1.498;2024-02-14T12:36:57;99380.06;;;12.09;100.00
41898;BME280;27576;53.366;-1.498;2024-02-14T12:39:26;99374.13;;;11.99;100.00
41898;BME280;27576;53.366;-1.498;2024-02-14T12:41:52;99340.53;;;11.74;100.00
41898;BME280;27576;53.366;-1.498;2024-02-14T12:44:18;99323.31;;;11.66;100.00